sensor_id;sensor_type;location;lat;lon;timestamp;temperature;humidity
21387;DHT22;10854;45.922;6.716;2023-03-31T00:01:24;11.80;88.60
21387;DHT22;10854;45.922;6.716;2023-03-31T00:03:52;11.70;88.90
21387;DHT22;10854;45.922;6.716;2023-03-31T00:06:30;11.70;88.90
21387;DHT22;10854;45.922;6.716;2023-03-31T00:08:59;11.70;88.80
21387;DHT22;10854;45.922;6.716;2023-03-31T00:11:28;11.70;88.70
21387;DHT22;10854;45.922;6.716;2023-03-31T00:13:57;11.70;88.50
21387;DHT22;10854;45.922;6.716;2023-03-31T00:16:26;11.70;88.70
21387;DHT22;10854;45.922;6.716;2023-03-31T00:18:55;11.70;89.20
21387;DHT22;10854;45.922;6.716;2023-03-31T00:21:23;11.60;89.30
21387;DHT22;10854;45.922;6.716;2023-03-31T00:23:57;11.60;89.20
21387;DHT22;10854;45.922;6.716;2023-03-31T00:26:26;11.60;89.30
21387;DHT22;10854;45.922;6.716;2023-03-31T00:28:56;11.60;89.10
21387;DHT22;10854;45.922;6.716;2023-03-31T00:31:25;11.60;88.50
21387;DHT22;10854;45.922;6.716;2023-03-31T00:33:54;11.60;88.30
21387;DHT22;10854;45.922;6.716;2023-03-31T00:36:24;11.70;88.40
21387;DHT22;10854;45.922;6.716;2023-03-31T00:38:57;11.60;88.30
21387;DHT22;10854;45.922;6.716;2023-03-31T00:41:37;11.60;88.20
21387;DHT22;10854;45.922;6.716;2023-03-31T00:44:07;11.60;88.40
21387;DHT22;10854;45.922;6.716;2023-03-31T00:46:57;11.60;88.70
21387;DHT22;10854;45.922;6.716;2023-03-31T00:49:34;11.60;89.00
21387;DHT22;10854;45.922;6.716;2023-03-31T00:52:25;11.50;89.10
21387;DHT22;10854;45.922;6.716;2023-03-31T00:54:58;11.50;89.20
21387;DHT22;10854;45.922;6.716;2023-03-31T00:57:29;11.50;89.50
21387;DHT22;10854;45.922;6.716;2023-03-31T01:00:04;11.50;89.60
21387;DHT22;10854;45.922;6.716;2023-03-31T01:02:44;11.40;89.90
21387;DHT22;10854;45.922;6.716;2023-03-31T01:05:31;11.40;90.10
21387;DHT22;10854;45.922;6.716;2023-03-31T01:08:01;11.40;90.20
21387;DHT22;10854;45.922;6.716;2023-03-31T01:10:34;11.30;90.20
21387;DHT22;10854;45.922;6.716;2023-03-31T01:13:12;11.40;90.30
21387;DHT22;10854;45.922;6.716;2023-03-31T01:15:43;11.40;90.30
21387;DHT22;10854;45.922;6.716;2023-03-31T01:18:13;11.40;90.20
21387;DHT22;10854;45.922;6.716;2023-03-31T01:23:40;11.50;90.00
21387;DHT22;10854;45.922;6.716;2023-03-31T01:26:24;11.50;89.60
21387;DHT22;10854;45.922;6.716;2023-03-31T01:35:38;11.60;89.30
21387;DHT22;10854;45.922;6.716;2023-03-31T01:44:09;11.40;90.30
21387;DHT22;10854;45.922;6.716;2023-03-31T01:46:40;11.30;90.60
21387;DHT22;10854;45.922;6.716;2023-03-31T01:50:13;11.30;90.80
21387;DHT22;10854;45.922;6.716;2023-03-31T01:54:51;11.30;90.80
21387;DHT22;10854;45.922;6.716;2023-03-31T01:57:52;11.30;90.80
21387;DHT22;10854;45.922;6.716;2023-03-31T02:00:30;11.30;90.80
21387;DHT22;10854;45.922;6.716;2023-03-31T02:03:19;11.40;91.10
21387;DHT22;10854;45.922;6.716;2023-03-31T02:05:55;11.40;90.60
21387;DHT22;10854;45.922;6.716;2023-03-31T02:08:44;11.40;90.60
21387;DHT22;10854;45.922;6.716;2023-03-31T02:11:15;11.50;90.70
21387;DHT22;10854;45.922;6.716;2023-03-31T02:13:46;11.50;90.70
21387;DHT22;10854;45.922;6.716;2023-03-31T02:16:21;11.50;90.90
21387;DHT22;10854;45.922;6.716;2023-03-31T02:18:54;11.50;90.80
21387;DHT22;10854;45.922;6.716;2023-03-31T02:21:31;11.60;90.80
21387;DHT22;10854;45.922;6.716;2023-03-31T02:24:05;11.70;90.70
21387;DHT22;10854;45.922;6.716;2023-03-31T02:26:45;11.70;90.60
21387;DHT22;10854;45.922;6.716;2023-03-31T02:29:17;11.70;90.80
21387;DHT22;10854;45.922;6.716;2023-03-31T02:31:51;11.60;91.00
21387;DHT22;10854;45.922;6.716;2023-03-31T02:34:24;11.50;91.60
21387;DHT22;10854;45.922;6.716;2023-03-31T02:36:52;11.40;92.20
21387;DHT22;10854;45.922;6.716;2023-03-31T02:39:28;11.30;93.00
21387;DHT22;10854;45.922;6.716;2023-03-31T02:41:58;11.10;93.50
21387;DHT22;10854;45.922;6.716;2023-03-31T02:44:29;11.10;94.40
21387;DHT22;10854;45.922;6.716;2023-03-31T02:46:57;11.00;96.30
21387;DHT22;10854;45.922;6.716;2023-03-31T02:49:26;10.90;97.80
21387;DHT22;10854;45.922;6.716;2023-03-31T03:11:26;10.60;99.90
21387;DHT22;10854;45.922;6.716;2023-03-31T03:17:10;10.50;99.90
21387;DHT22;10854;45.922;6.716;2023-03-31T03:19:41;10.50;99.90
21387;DHT22;10854;45.922;6.716;2023-03-31T03:22:10;10.50;99.90
21387;DHT22;10854;45.922;6.716;2023-03-31T03:24:38;10.70;99.90
21387;DHT22;10854;45.922;6.716;2023-03-31T03:27:07;10.90;99.90
21387;DHT22;10854;45.922;6.716;2023-03-31T03:29:35;11.10;99.20
21387;DHT22;10854;45.922;6.716;2023-03-31T03:32:03;11.30;96.40
21387;DHT22;10854;45.922;6.716;2023-03-31T03:34:32;11.50;96.70
21387;DHT22;10854;45.922;6.716;2023-03-31T03:37:00;11.50;95.80
21387;DHT22;10854;45.922;6.716;2023-03-31T03:39:29;11.60;94.20
21387;DHT22;10854;45.922;6.716;2023-03-31T03:41:57;11.70;93.80
21387;DHT22;10854;45.922;6.716;2023-03-31T03:44:26;11.80;93.70
21387;DHT22;10854;45.922;6.716;2023-03-31T03:46:54;11.70;93.60
21387;DHT22;10854;45.922;6.716;2023-03-31T03:49:23;11.70;94.00
21387;DHT22;10854;45.922;6.716;2023-03-31T03:51:52;11.50;94.60
21387;DHT22;10854;45.922;6.716;2023-03-31T03:54:20;11.40;95.10
21387;DHT22;10854;45.922;6.716;2023-03-31T03:56:49;11.30;95.50
21387;DHT22;10854;45.922;6.716;2023-03-31T03:59:17;11.20;96.70
21387;DHT22;10854;45.922;6.716;2023-03-31T04:01:45;11.20;97.60
21387;DHT22;10854;45.922;6.716;2023-03-31T04:04:14;11.20;98.20
21387;DHT22;10854;45.922;6.716;2023-03-31T04:06:42;11.20;98.70
21387;DHT22;10854;45.922;6.716;2023-03-31T04:09:13;11.20;98.90
21387;DHT22;10854;45.922;6.716;2023-03-31T04:11:41;11.20;98.80
21387;DHT22;10854;45.922;6.716;2023-03-31T04:14:14;11.20;98.10
21387;DHT22;10854;45.922;6.716;2023-03-31T04:16:42;11.20;97.80
21387;DHT22;10854;45.922;6.716;2023-03-31T04:19:14;11.30;97.60
21387;DHT22;10854;45.922;6.716;2023-03-31T04:21:44;11.30;97.40
21387;DHT22;10854;45.922;6.716;2023-03-31T04:24:13;11.20;97.30
21387;DHT22;10854;45.922;6.716;2023-03-31T04:26:48;11.20;97.60
21387;DHT22;10854;45.922;6.716;2023-03-31T04:29:17;11.20;97.90
21387;DHT22;10854;45.922;6.716;2023-03-31T04:31:49;11.10;98.70
21387;DHT22;10854;45.922;6.716;2023-03-31T04:34:19;11.00;99.50
21387;DHT22;10854;45.922;6.716;2023-03-31T04:36:49;10.90;99.90
21387;DHT22;10854;45.922;6.716;2023-03-31T04:39:21;10.70;99.90
21387;DHT22;10854;45.922;6.716;2023-03-31T04:41:59;10.60;99.90
21387;DHT22;10854;45.922;6.716;2023-03-31T04:44:30;10.40;99.90
21387;DHT22;10854;45.922;6.716;2023-03-31T04:46:59;10.20;99.90
21387;DHT22;10854;45.922;6.716;2023-03-31T04:49:29;10.10;99.90
21387;DHT22;10854;45.922;6.716;2023-03-31T04:52:00;9.90;99.90
21387;DHT22;10854;45.922;6.716;2023-03-31T04:54:29;9.80;99.90
21387;DHT22;10854;45.922;6.716;2023-03-31T04:56:57;9.80;99.90
21387;DHT22;10854;45.922;6.716;2023-03-31T04:59:25;9.70;99.90
21387;DHT22;10854;45.922;6.716;2023-03-31T05:01:54;9.60;99.90
21387;DHT22;10854;45.922;6.716;2023-03-31T05:04:22;9.60;99.90
21387;DHT22;10854;45.922;6.716;2023-03-31T05:06:51;9.60;99.90
21387;DHT22;10854;45.922;6.716;2023-03-31T05:09:20;9.50;99.90
21387;DHT22;10854;45.922;6.716;2023-03-31T05:11:48;9.50;99.90
21387;DHT22;10854;45.922;6.716;2023-03-31T05:14:17;9.40;99.90
21387;DHT22;10854;45.922;6.716;2023-03-31T05:16:45;9.40;99.90
21387;DHT22;10854;45.922;6.716;2023-03-31T05:19:14;9.40;99.90
21387;DHT22;10854;45.922;6.716;2023-03-31T05:21:42;9.30;99.90
21387;DHT22;10854;45.922;6.716;2023-03-31T05:24:10;9.30;99.90
21387;DHT22;10854;45.922;6.716;2023-03-31T05:26:39;9.30;99.90
21387;DHT22;10854;45.922;6.716;2023-03-31T05:29:08;9.30;99.90
21387;DHT22;10854;45.922;6.716;2023-03-31T05:31:37;9.30;99.90
21387;DHT22;10854;45.922;6.716;2023-03-31T05:34:05;9.20;99.90
21387;DHT22;10854;45.922;6.716;2023-03-31T05:36:33;9.20;99.90
21387;DHT22;10854;45.922;6.716;2023-03-31T05:39:05;9.20;99.90
21387;DHT22;10854;45.922;6.716;2023-03-31T05:41:34;9.20;99.90
21387;DHT22;10854;45.922;6.716;2023-03-31T05:44:03;9.20;99.90
21387;DHT22;10854;45.922;6.716;2023-03-31T05:46:31;9.20;99.90
21387;DHT22;10854;45.922;6.716;2023-03-31T05:49:00;9.20;99.90
21387;DHT22;10854;45.922;6.716;2023-03-31T05:51:29;9.10;99.90
21387;DHT22;10854;45.922;6.716;2023-03-31T05:53:57;9.10;99.90
21387;DHT22;10854;45.922;6.716;2023-03-31T05:56:26;9.10;99.90
21387;DHT22;10854;45.922;6.716;2023-03-31T05:58:54;9.10;99.90
21387;DHT22;10854;45.922;6.716;2023-03-31T06:01:23;9.10;99.90
21387;DHT22;10854;45.922;6.716;2023-03-31T06:03:51;9.10;99.90
21387;DHT22;10854;45.922;6.716;2023-03-31T06:06:20;9.10;99.90
21387;DHT22;10854;45.922;6.716;2023-03-31T06:08:49;9.10;99.90
21387;DHT22;10854;45.922;6.716;2023-03-31T06:11:19;9.20;99.90
21387;DHT22;10854;45.922;6.716;2023-03-31T06:13:48;9.20;99.90
21387;DHT22;10854;45.922;6.716;2023-03-31T06:16:17;9.20;99.90
21387;DHT22;10854;45.922;6.716;2023-03-31T06:18:47;9.20;99.90
21387;DHT22;10854;45.922;6.716;2023-03-31T06:21:18;9.20;99.90
21387;DHT22;10854;45.922;6.716;2023-03-31T06:23:48;9.20;99.90
21387;DHT22;10854;45.922;6.716;2023-03-31T06:26:17;9.10;99.90
21387;DHT22;10854;45.922;6.716;2023-03-31T06:28:46;9.20;99.90
21387;DHT22;10854;45.922;6.716;2023-03-31T06:31:17;9.20;99.90
21387;DHT22;10854;45.922;6.716;2023-03-31T06:33:47;9.10;99.90
21387;DHT22;10854;45.922;6.716;2023-03-31T06:36:17;9.20;99.90
21387;DHT22;10854;45.922;6.716;2023-03-31T06:38:47;9.20;99.90
21387;DHT22;10854;45.922;6.716;2023-03-31T06:41:16;9.20;99.90
21387;DHT22;10854;45.922;6.716;2023-03-31T06:43:45;9.20;99.90
21387;DHT22;10854;45.922;6.716;2023-03-31T06:46:14;9.20;99.90
21387;DHT22;10854;45.922;6.716;2023-03-31T06:48:43;9.20;99.90
21387;DHT22;10854;45.922;6.716;2023-03-31T06:51:14;9.20;99.90
21387;DHT22;10854;45.922;6.716;2023-03-31T06:53:43;9.20;99.90
21387;DHT22;10854;45.922;6.716;2023-03-31T06:56:12;9.20;99.90
21387;DHT22;10854;45.922;6.716;2023-03-31T06:58:42;9.30;99.90
21387;DHT22;10854;45.922;6.716;2023-03-31T07:01:12;9.30;99.90
21387;DHT22;10854;45.922;6.716;2023-03-31T07:03:41;9.30;99.90
21387;DHT22;10854;45.922;6.716;2023-03-31T07:06:11;9.30;99.90
21387;DHT22;10854;45.922;6.716;2023-03-31T07:08:41;9.30;99.90
21387;DHT22;10854;45.922;6.716;2023-03-31T07:11:11;9.40;99.90
21387;DHT22;10854;45.922;6.716;2023-03-31T07:13:40;9.40;99.90
21387;DHT22;10854;45.922;6.716;2023-03-31T07:16:10;9.50;99.90
21387;DHT22;10854;45.922;6.716;2023-03-31T07:18:42;9.50;99.90
21387;DHT22;10854;45.922;6.716;2023-03-31T07:21:16;9.50;99.90
21387;DHT22;10854;45.922;6.716;2023-03-31T07:23:45;9.50;99.90
21387;DHT22;10854;45.922;6.716;2023-03-31T07:26:15;9.50;99.90
21387;DHT22;10854;45.922;6.716;2023-03-31T07:28:45;9.50;99.90
21387;DHT22;10854;45.922;6.716;2023-03-31T07:31:15;9.50;99.90
21387;DHT22;10854;45.922;6.716;2023-03-31T07:33:46;9.50;99.90
21387;DHT22;10854;45.922;6.716;2023-03-31T07:36:14;9.50;99.90
21387;DHT22;10854;45.922;6.716;2023-03-31T07:38:46;9.40;99.90
21387;DHT22;10854;45.922;6.716;2023-03-31T07:41:18;9.50;99.90
21387;DHT22;10854;45.922;6.716;2023-03-31T07:43:47;9.50;99.90
21387;DHT22;10854;45.922;6.716;2023-03-31T07:46:22;9.50;99.90
21387;DHT22;10854;45.922;6.716;2023-03-31T07:48:52;9.50;99.90
21387;DHT22;10854;45.922;6.716;2023-03-31T07:51:23;9.50;99.90
21387;DHT22;10854;45.922;6.716;2023-03-31T07:53:52;9.50;99.90
21387;DHT22;10854;45.922;6.716;2023-03-31T07:56:23;9.60;99.90
21387;DHT22;10854;45.922;6.716;2023-03-31T07:58:52;9.60;99.90
21387;DHT22;10854;45.922;6.716;2023-03-31T08:01:22;9.50;99.90
21387;DHT22;10854;45.922;6.716;2023-03-31T08:03:53;9.50;99.90
21387;DHT22;10854;45.922;6.716;2023-03-31T08:06:24;9.50;99.90
21387;DHT22;10854;45.922;6.716;2023-03-31T08:08:52;9.50;99.90
21387;DHT22;10854;45.922;6.716;2023-03-31T08:11:21;9.40;99.90
21387;DHT22;10854;45.922;6.716;2023-03-31T08:13:49;9.50;99.90
21387;DHT22;10854;45.922;6.716;2023-03-31T08:16:18;9.50;99.90
21387;DHT22;10854;45.922;6.716;2023-03-31T08:18:46;9.50;99.90
21387;DHT22;10854;45.922;6.716;2023-03-31T08:21:15;9.50;99.90
21387;DHT22;10854;45.922;6.716;2023-03-31T08:23:43;9.60;99.90
21387;DHT22;10854;45.922;6.716;2023-03-31T08:26:14;9.60;99.90
21387;DHT22;10854;45.922;6.716;2023-03-31T08:28:46;9.60;99.90
21387;DHT22;10854;45.922;6.716;2023-03-31T08:31:19;9.70;99.90
21387;DHT22;10854;45.922;6.716;2023-03-31T08:33:48;9.60;99.90
21387;DHT22;10854;45.922;6.716;2023-03-31T08:36:17;9.70;99.90
21387;DHT22;10854;45.922;6.716;2023-03-31T08:38:45;9.70;99.90
21387;DHT22;10854;45.922;6.716;2023-03-31T08:41:41;9.70;99.90
21387;DHT22;10854;45.922;6.716;2023-03-31T08:44:18;9.70;99.90
21387;DHT22;10854;45.922;6.716;2023-03-31T08:46:50;9.80;99.90
21387;DHT22;10854;45.922;6.716;2023-03-31T08:49:20;9.80;99.90
21387;DHT22;10854;45.922;6.716;2023-03-31T08:51:56;9.80;99.90
21387;DHT22;10854;45.922;6.716;2023-03-31T08:54:46;9.80;99.90
21387;DHT22;10854;45.922;6.716;2023-03-31T08:57:23;9.80;99.90
21387;DHT22;10854;45.922;6.716;2023-03-31T08:59:53;9.80;99.90
21387;DHT22;10854;45.922;6.716;2023-03-31T09:03:05;9.80;99.90
21387;DHT22;10854;45.922;6.716;2023-03-31T09:05:45;9.80;99.90
21387;DHT22;10854;45.922;6.716;2023-03-31T09:08:40;9.80;99.90
21387;DHT22;10854;45.922;6.716;2023-03-31T09:16:44;10.00;99.90
21387;DHT22;10854;45.922;6.716;2023-03-31T09:19:49;10.10;99.90
21387;DHT22;10854;45.922;6.716;2023-03-31T09:22:23;10.20;99.90
21387;DHT22;10854;45.922;6.716;2023-03-31T09:25:20;10.30;99.90
21387;DHT22;10854;45.922;6.716;2023-03-31T09:27:49;10.30;99.90
21387;DHT22;10854;45.922;6.716;2023-03-31T09:30:31;10.30;99.90
21387;DHT22;10854;45.922;6.716;2023-03-31T09:33:36;10.40;99.90
21387;DHT22;10854;45.922;6.716;2023-03-31T09:36:14;10.50;99.90
21387;DHT22;10854;45.922;6.716;2023-03-31T09:38:44;10.60;99.90
21387;DHT22;10854;45.922;6.716;2023-03-31T09:41:14;10.70;99.90
21387;DHT22;10854;45.922;6.716;2023-03-31T09:43:43;10.80;99.90
21387;DHT22;10854;45.922;6.716;2023-03-31T09:46:18;10.80;99.90
21387;DHT22;10854;45.922;6.716;2023-03-31T09:52:02;10.80;99.90
21387;DHT22;10854;45.922;6.716;2023-03-31T09:54:43;10.70;99.90
21387;DHT22;10854;45.922;6.716;2023-03-31T09:57:22;10.70;99.90
21387;DHT22;10854;45.922;6.716;2023-03-31T09:59:51;10.60;99.90
21387;DHT22;10854;45.922;6.716;2023-03-31T10:02:36;10.50;99.90
21387;DHT22;10854;45.922;6.716;2023-03-31T10:07:49;10.70;99.90
21387;DHT22;10854;45.922;6.716;2023-03-31T10:10:27;10.90;99.90
21387;DHT22;10854;45.922;6.716;2023-03-31T10:12:59;11.10;99.90
21387;DHT22;10854;45.922;6.716;2023-03-31T10:15:29;11.30;99.90
21387;DHT22;10854;45.922;6.716;2023-03-31T10:17:58;11.40;99.90
21387;DHT22;10854;45.922;6.716;2023-03-31T10:20:37;11.70;99.90
21387;DHT22;10854;45.922;6.716;2023-03-31T10:23:28;12.00;99.90
21387;DHT22;10854;45.922;6.716;2023-03-31T10:25:58;12.20;99.90
21387;DHT22;10854;45.922;6.716;2023-03-31T10:28:31;12.30;99.90
21387;DHT22;10854;45.922;6.716;2023-03-31T10:31:01;12.40;99.90
21387;DHT22;10854;45.922;6.716;2023-03-31T10:33:32;12.60;99.90
21387;DHT22;10854;45.922;6.716;2023-03-31T10:36:25;12.80;99.90
21387;DHT22;10854;45.922;6.716;2023-03-31T10:38:55;13.00;99.90
21387;DHT22;10854;45.922;6.716;2023-03-31T10:41:27;13.40;99.90
21387;DHT22;10854;45.922;6.716;2023-03-31T10:43:57;13.60;99.90
21387;DHT22;10854;45.922;6.716;2023-03-31T10:46:47;13.80;99.90
21387;DHT22;10854;45.922;6.716;2023-03-31T10:49:24;13.80;99.90
21387;DHT22;10854;45.922;6.716;2023-03-31T10:51:56;13.70;99.90
21387;DHT22;10854;45.922;6.716;2023-03-31T10:54:26;13.60;99.90
21387;DHT22;10854;45.922;6.716;2023-03-31T10:56:57;13.50;99.90
21387;DHT22;10854;45.922;6.716;2023-03-31T10:59:57;13.50;99.90
21387;DHT22;10854;45.922;6.716;2023-03-31T11:05:48;13.60;99.90
21387;DHT22;10854;45.922;6.716;2023-03-31T11:09:09;13.60;99.90
21387;DHT22;10854;45.922;6.716;2023-03-31T11:17:37;13.30;99.90
21387;DHT22;10854;45.922;6.716;2023-03-31T11:20:39;13.10;99.90
21387;DHT22;10854;45.922;6.716;2023-03-31T11:29:16;12.30;99.90
21387;DHT22;10854;45.922;6.716;2023-03-31T11:32:12;12.00;99.90
21387;DHT22;10854;45.922;6.716;2023-03-31T11:34:59;11.70;99.90
21387;DHT22;10854;45.922;6.716;2023-03-31T11:37:55;11.30;99.90
21387;DHT22;10854;45.922;6.716;2023-03-31T11:46:25;11.50;99.90
21387;DHT22;10854;45.922;6.716;2023-03-31T11:48:58;12.00;99.90
21387;DHT22;10854;45.922;6.716;2023-03-31T11:57:38;12.90;99.90
21387;DHT22;10854;45.922;6.716;2023-03-31T12:00:22;13.10;99.90
21387;DHT22;10854;45.922;6.716;2023-03-31T12:03:24;13.20;99.90
21387;DHT22;10854;45.922;6.716;2023-03-31T12:06:22;13.40;99.90
21387;DHT22;10854;45.922;6.716;2023-03-31T12:14:33;13.40;99.90
21387;DHT22;10854;45.922;6.716;2023-03-31T12:17:17;13.40;99.90
21387;DHT22;10854;45.922;6.716;2023-03-31T12:19:55;13.60;99.90
21387;DHT22;10854;45.922;6.716;2023-03-31T12:22:34;13.60;99.90
21387;DHT22;10854;45.922;6.716;2023-03-31T12:25:14;13.60;99.90
21387;DHT22;10854;45.922;6.716;2023-03-31T12:27:45;13.60;99.90
21387;DHT22;10854;45.922;6.716;2023-03-31T12:30:30;13.70;99.90
21387;DHT22;10854;45.922;6.716;2023-03-31T12:39:27;14.10;89.00
21387;DHT22;10854;45.922;6.716;2023-03-31T12:42:19;14.10;88.90
21387;DHT22;10854;45.922;6.716;2023-03-31T12:45:17;14.00;86.50
21387;DHT22;10854;45.922;6.716;2023-03-31T12:50:53;13.70;83.00
21387;DHT22;10854;45.922;6.716;2023-03-31T12:56:08;13.50;82.80
21387;DHT22;10854;45.922;6.716;2023-03-31T12:58:43;13.40;81.00
21387;DHT22;10854;45.922;6.716;2023-03-31T13:01:15;13.40;79.30
21387;DHT22;10854;45.922;6.716;2023-03-31T13:03:52;13.40;78.20
21387;DHT22;10854;45.922;6.716;2023-03-31T13:08:57;13.10;76.70
21387;DHT22;10854;45.922;6.716;2023-03-31T13:14:23;13.00;74.20
21387;DHT22;10854;45.922;6.716;2023-03-31T13:17:27;12.90;74.20
21387;DHT22;10854;45.922;6.716;2023-03-31T13:25:45;12.80;79.60
21387;DHT22;10854;45.922;6.716;2023-03-31T13:30:52;12.60;80.70
21387;DHT22;10854;45.922;6.716;2023-03-31T13:33:36;12.40;81.20
21387;DHT22;10854;45.922;6.716;2023-03-31T13:44:33;11.30;88.40
21387;DHT22;10854;45.922;6.716;2023-03-31T13:50:09;10.30;89.00
21387;DHT22;10854;45.922;6.716;2023-03-31T14:04:15;9.10;99.90
21387;DHT22;10854;45.922;6.716;2023-03-31T14:06:55;9.00;99.90
21387;DHT22;10854;45.922;6.716;2023-03-31T14:09:33;9.00;99.90
21387;DHT22;10854;45.922;6.716;2023-03-31T14:12:19;8.90;99.90
21387;DHT22;10854;45.922;6.716;2023-03-31T14:14:52;8.90;99.90
21387;DHT22;10854;45.922;6.716;2023-03-31T14:17:32;8.90;99.90
21387;DHT22;10854;45.922;6.716;2023-03-31T14:23:19;8.90;99.90
21387;DHT22;10854;45.922;6.716;2023-03-31T14:26:15;8.90;99.90
21387;DHT22;10854;45.922;6.716;2023-03-31T14:31:58;9.00;99.90
21387;DHT22;10854;45.922;6.716;2023-03-31T14:37:14;9.10;99.90
21387;DHT22;10854;45.922;6.716;2023-03-31T14:39:46;9.20;99.90
21387;DHT22;10854;45.922;6.716;2023-03-31T14:42:26;9.20;99.90
21387;DHT22;10854;45.922;6.716;2023-03-31T14:45:03;9.30;99.90
21387;DHT22;10854;45.922;6.716;2023-03-31T14:47:33;9.20;99.90
21387;DHT22;10854;45.922;6.716;2023-03-31T14:50:27;9.20;99.90
21387;DHT22;10854;45.922;6.716;2023-03-31T14:52:56;9.20;99.90
21387;DHT22;10854;45.922;6.716;2023-03-31T14:55:27;9.40;99.90
21387;DHT22;10854;45.922;6.716;2023-03-31T14:58:02;9.60;99.90
21387;DHT22;10854;45.922;6.716;2023-03-31T15:00:32;9.90;99.90
21387;DHT22;10854;45.922;6.716;2023-03-31T15:03:02;10.20;99.90
21387;DHT22;10854;45.922;6.716;2023-03-31T15:05:36;10.40;99.90
21387;DHT22;10854;45.922;6.716;2023-03-31T15:08:14;10.60;99.90
21387;DHT22;10854;45.922;6.716;2023-03-31T15:10:47;10.70;99.90
21387;DHT22;10854;45.922;6.716;2023-03-31T15:13:31;10.80;99.90
21387;DHT22;10854;45.922;6.716;2023-03-31T15:16:27;10.70;99.90
21387;DHT22;10854;45.922;6.716;2023-03-31T15:18:59;10.60;99.90
21387;DHT22;10854;45.922;6.716;2023-03-31T15:21:30;10.50;99.90
21387;DHT22;10854;45.922;6.716;2023-03-31T15:23:59;10.30;99.90
21387;DHT22;10854;45.922;6.716;2023-03-31T15:26:34;10.20;99.90
21387;DHT22;10854;45.922;6.716;2023-03-31T15:29:15;10.00;99.90
21387;DHT22;10854;45.922;6.716;2023-03-31T15:31:44;9.90;99.90
21387;DHT22;10854;45.922;6.716;2023-03-31T15:34:18;9.70;99.90
21387;DHT22;10854;45.922;6.716;2023-03-31T15:36:48;9.70;99.90
21387;DHT22;10854;45.922;6.716;2023-03-31T15:39:16;9.70;99.90
21387;DHT22;10854;45.922;6.716;2023-03-31T15:41:46;9.70;99.90
21387;DHT22;10854;45.922;6.716;2023-03-31T15:44:43;9.80;99.90
21387;DHT22;10854;45.922;6.716;2023-03-31T15:47:26;9.80;99.90
21387;DHT22;10854;45.922;6.716;2023-03-31T15:49:57;9.80;99.90
21387;DHT22;10854;45.922;6.716;2023-03-31T15:52:36;9.70;99.90
21387;DHT22;10854;45.922;6.716;2023-03-31T15:55:41;9.70;99.90
21387;DHT22;10854;45.922;6.716;2023-03-31T15:58:14;9.80;99.90
21387;DHT22;10854;45.922;6.716;2023-03-31T16:00:53;9.90;99.90
21387;DHT22;10854;45.922;6.716;2023-03-31T16:03:34;9.90;99.90
21387;DHT22;10854;45.922;6.716;2023-03-31T16:06:09;9.90;99.90
21387;DHT22;10854;45.922;6.716;2023-03-31T16:08:51;9.90;99.90
21387;DHT22;10854;45.922;6.716;2023-03-31T16:11:26;9.80;99.90
21387;DHT22;10854;45.922;6.716;2023-03-31T16:13:57;9.80;99.90
21387;DHT22;10854;45.922;6.716;2023-03-31T16:16:28;9.80;99.90
21387;DHT22;10854;45.922;6.716;2023-03-31T16:19:05;9.70;99.90
21387;DHT22;10854;45.922;6.716;2023-03-31T16:21:42;9.70;99.90
21387;DHT22;10854;45.922;6.716;2023-03-31T16:24:12;9.70;99.90
21387;DHT22;10854;45.922;6.716;2023-03-31T16:26:42;9.70;99.90
21387;DHT22;10854;45.922;6.716;2023-03-31T16:29:21;9.70;99.90
21387;DHT22;10854;45.922;6.716;2023-03-31T16:31:49;9.70;99.90
21387;DHT22;10854;45.922;6.716;2023-03-31T16:34:33;9.70;99.90
21387;DHT22;10854;45.922;6.716;2023-03-31T16:37:01;9.80;99.90
21387;DHT22;10854;45.922;6.716;2023-03-31T16:39:36;9.80;99.90
21387;DHT22;10854;45.922;6.716;2023-03-31T16:42:04;9.90;99.90
21387;DHT22;10854;45.922;6.716;2023-03-31T16:44:33;9.90;99.90
21387;DHT22;10854;45.922;6.716;2023-03-31T16:47:02;10.00;99.90
21387;DHT22;10854;45.922;6.716;2023-03-31T16:49:30;10.10;99.90
21387;DHT22;10854;45.922;6.716;2023-03-31T16:51:59;10.10;99.90
21387;DHT22;10854;45.922;6.716;2023-03-31T16:54:27;10.10;99.90
21387;DHT22;10854;45.922;6.716;2023-03-31T16:56:56;10.20;99.90
21387;DHT22;10854;45.922;6.716;2023-03-31T16:59:25;10.20;99.90
21387;DHT22;10854;45.922;6.716;2023-03-31T17:01:53;10.30;99.90
21387;DHT22;10854;45.922;6.716;2023-03-31T17:04:22;10.30;99.90
21387;DHT22;10854;45.922;6.716;2023-03-31T17:06:50;10.20;99.90
21387;DHT22;10854;45.922;6.716;2023-03-31T17:09:19;10.20;99.90
21387;DHT22;10854;45.922;6.716;2023-03-31T17:11:47;10.20;99.90
21387;DHT22;10854;45.922;6.716;2023-03-31T17:14:18;10.10;99.90
21387;DHT22;10854;45.922;6.716;2023-03-31T17:16:47;10.10;99.90
21387;DHT22;10854;45.922;6.716;2023-03-31T17:19:16;10.00;99.90
21387;DHT22;10854;45.922;6.716;2023-03-31T17:21:45;9.90;99.90
21387;DHT22;10854;45.922;6.716;2023-03-31T17:24:15;9.90;99.90
21387;DHT22;10854;45.922;6.716;2023-03-31T17:26:43;9.90;99.90
21387;DHT22;10854;45.922;6.716;2023-03-31T17:29:14;9.80;99.90
21387;DHT22;10854;45.922;6.716;2023-03-31T17:31:43;9.70;99.90
21387;DHT22;10854;45.922;6.716;2023-03-31T17:34:11;9.60;99.90
21387;DHT22;10854;45.922;6.716;2023-03-31T17:36:40;9.50;99.90
21387;DHT22;10854;45.922;6.716;2023-03-31T17:39:10;9.30;99.90
21387;DHT22;10854;45.922;6.716;2023-03-31T17:41:39;9.20;99.90
21387;DHT22;10854;45.922;6.716;2023-03-31T17:44:07;9.00;99.90
21387;DHT22;10854;45.922;6.716;2023-03-31T17:46:36;8.90;99.90
21387;DHT22;10854;45.922;6.716;2023-03-31T17:49:05;8.60;99.90
21387;DHT22;10854;45.922;6.716;2023-03-31T17:51:33;8.20;99.90
21387;DHT22;10854;45.922;6.716;2023-03-31T17:54:03;7.90;99.90
21387;DHT22;10854;45.922;6.716;2023-03-31T17:56:31;7.70;99.90
21387;DHT22;10854;45.922;6.716;2023-03-31T17:58:59;7.40;99.90
21387;DHT22;10854;45.922;6.716;2023-03-31T18:01:28;7.30;99.90
21387;DHT22;10854;45.922;6.716;2023-03-31T18:03:57;7.10;99.90
21387;DHT22;10854;45.922;6.716;2023-03-31T18:06:26;7.00;99.90
21387;DHT22;10854;45.922;6.716;2023-03-31T18:08:55;6.90;99.90
21387;DHT22;10854;45.922;6.716;2023-03-31T18:11:26;6.80;99.90
21387;DHT22;10854;45.922;6.716;2023-03-31T18:13:55;6.70;99.90
21387;DHT22;10854;45.922;6.716;2023-03-31T18:16:23;6.70;99.90
21387;DHT22;10854;45.922;6.716;2023-03-31T18:18:52;6.70;99.90
21387;DHT22;10854;45.922;6.716;2023-03-31T18:21:20;6.70;99.90
21387;DHT22;10854;45.922;6.716;2023-03-31T18:23:53;6.70;99.90
21387;DHT22;10854;45.922;6.716;2023-03-31T18:26:23;6.60;99.90
21387;DHT22;10854;45.922;6.716;2023-03-31T18:28:52;6.60;99.90
21387;DHT22;10854;45.922;6.716;2023-03-31T18:31:22;6.60;99.90
21387;DHT22;10854;45.922;6.716;2023-03-31T18:33:53;6.60;99.90
21387;DHT22;10854;45.922;6.716;2023-03-31T18:36:24;6.60;99.90
21387;DHT22;10854;45.922;6.716;2023-03-31T18:38:55;6.60;99.90
21387;DHT22;10854;45.922;6.716;2023-03-31T18:41:23;6.50;99.90